Stuyvesant — WNFX — position and weather

sailwx.info

Track history (hours):
 
Tides and Currents Weather Stations Pressure Air Temp Water Temp Dewpoint Dewpoint Depression Visibility Wind Speed Wind Dir Waves Ship Positions

Stuyvesant

Owner: THE DUTRA GROUP, SAN RAFAEL, CA. More information available from US FCC via Universal Licensing System and Coast Guard Vessel Documentation Center.

Last reported at 2017-Oct-19 09:00 UTC. Time now 2017-Oct-19 09:03 UTC.
Position N 39°07' W 075°13'.

Length 122 m; draft 10 m.

Type: Dredging. MMSI: 368098000.

Date/timePositionNaut miles runAvg speedWind from/ knotsBaromVisibWave heightAir tempDewpointWater temp
2017-Oct-19 09:00N 39°07' W 075°13'1 2.4
2017-Oct-19 08:30N 39°08' W 075°14'0 0.7
2017-Oct-19 08:00N 39°08' W 075°14'5 9.1
2017-Oct-19 07:30N 39°12' W 075°17'510.2
2017-Oct-19 07:00N 39°16' W 075°21'510.3
2017-Oct-19 06:30N 39°20' W 075°25'5 9.9
2017-Oct-19 06:00N 39°24' W 075°30'510.1
2017-Oct-19 05:30N 39°28' W 075°34'2 3.1
2017-Oct-19 05:00N 39°29' W 075°34'0 0.1
2017-Oct-19 04:30N 39°29' W 075°34'0 0.0
2017-Oct-19 04:00N 39°29' W 075°33'0 0.0
2017-Oct-19 03:30N 39°29' W 075°33'0 0.0
2017-Oct-19 03:00N 39°29' W 075°33'0 0.0
2017-Oct-19 02:30N 39°29' W 075°33'0 0.0
2017-Oct-19 02:01N 39°29' W 075°33'0 0.0
2017-Oct-19 01:30N 39°29' W 075°33'0 0.0
2017-Oct-19 01:00N 39°29' W 075°33'0 0.0
2017-Oct-19 00:30N 39°29' W 075°34'0 0.0
2017-Oct-19 00:01N 39°29' W 075°34'0 0.1
2017-Oct-18 23:31N 39°29' W 075°34'2 4.1
2017-Oct-18 23:01N 39°27' W 075°33'4 8.4
2017-Oct-18 22:31N 39°24' W 075°30'3 6.2
2017-Oct-18 22:01N 39°22' W 075°27'4 7.4
2017-Oct-18 21:31N 39°19' W 075°24'4 7.4
2017-Oct-18 21:00N 39°16' W 075°21'3 6.2
2017-Oct-18 20:31N 39°14' W 075°18'2 4.6
2017-Oct-18 20:01N 39°12' W 075°17'3 5.9
2017-Oct-18 19:30N 39°09' W 075°15'3 5.1
2017-Oct-18 19:01N 39°07' W 075°13'1 1.6
2017-Oct-18 18:31N 39°07' W 075°13'0 0.1
2017-Oct-18 18:00N 39°07' W 075°13'1 1.2
2017-Oct-18 17:30N 39°07' W 075°13'0 0.0
2017-Oct-18 17:01N 39°07' W 075°13'0 0.9
2017-Oct-18 16:31N 39°07' W 075°13'0 0.8
2017-Oct-18 16:01N 39°06' W 075°12'1 1.4
2017-Oct-18 15:31N 39°07' W 075°13'0 0.8
2017-Oct-18 15:01N 39°07' W 075°13'0 0.4
2017-Oct-18 13:53N 39°07' W 075°13'1 1.4
2017-Oct-18 13:30N 39°07' W 075°13'1 1.7
2017-Oct-18 13:00N 39°08' W 075°14'2 3.2
2017-Oct-18 12:30N 39°09' W 075°15'4 8.1
2017-Oct-18 12:00N 39°13' W 075°18'4 8.0
2017-Oct-18 11:30N 39°16' W 075°21'4 8.1
2017-Oct-18 11:00N 39°19' W 075°24'4 8.0
2017-Oct-18 10:30N 39°22' W 075°28'4 8.9
2017-Oct-18 10:00N 39°26' W 075°32'4 8.0
2017-Oct-18 09:31N 39°29' W 075°34'0 0.3
2017-Oct-18 09:00N 39°29' W 075°34'0 0.0
2017-Oct-18 08:30N 39°29' W 075°34'0 0.0
2017-Oct-18 08:00N 39°29' W 075°34'0 0.0
2017-Oct-18 07:30N 39°29' W 075°34'0 0.0
2017-Oct-18 07:00N 39°29' W 075°34'0 0.0
2017-Oct-18 06:30N 39°29' W 075°34'0 0.0
2017-Oct-18 06:00N 39°29' W 075°34'0 0.0
2017-Oct-18 05:30N 39°29' W 075°34'0 0.0
2017-Oct-18 05:00N 39°29' W 075°34'0 0.1
2017-Oct-18 04:31N 39°29' W 075°34'2 5.0
2017-Oct-18 04:00N 39°27' W 075°33'4 8.4
2017-Oct-18 03:30N 39°24' W 075°29'4 8.9
2017-Oct-18 03:01N 39°20' W 075°26'4 8.4
2017-Oct-18 02:31N 39°17' W 075°22'4 8.9
2017-Oct-18 02:01N 39°14' W 075°18'4 8.8
2017-Oct-18 01:30N 39°10' W 075°16'4 7.0
2017-Oct-18 01:00N 39°07' W 075°13'0 0.2
2017-Oct-18 00:31N 39°07' W 075°13'0 0.4
2017-Oct-18 00:00N 39°07' W 075°13'0 0.8
2017-Oct-17 23:31N 39°07' W 075°13'0 0.7
2017-Oct-17 23:01N 39°07' W 075°13'0 0.1
2017-Oct-17 22:30N 39°07' W 075°13'0 0.8
2017-Oct-17 22:00N 39°07' W 075°13'1 1.4
2017-Oct-17 21:30N 39°07' W 075°13'1 1.4
2017-Oct-17 20:54N 39°07' W 075°13'0 0.9
2017-Oct-17 20:30N 39°07' W 075°13'0 0.8
2017-Oct-17 20:00N 39°07' W 075°13'1 1.1
2017-Oct-17 19:30N 39°07' W 075°13'2 3.4
2017-Oct-17 19:01N 39°09' W 075°14'4 8.0
2017-Oct-17 18:29N 39°12' W 075°17'4 9.3
2017-Oct-17 18:01N 39°16' W 075°20'5 9.6
2017-Oct-17 17:30N 39°19' W 075°25'5 9.3
2017-Oct-17 17:00N 39°23' W 075°29'4 9.0
2017-Oct-17 16:31N 39°26' W 075°32'3 6.5
2017-Oct-17 16:01N 39°29' W 075°33'0 0.1
2017-Oct-17 15:31N 39°29' W 075°34'0 0.0
2017-Oct-17 15:01N 39°29' W 075°34'0 0.0
2017-Oct-17 14:30N 39°29' W 075°33'0 0.0
2017-Oct-17 14:01N 39°29' W 075°33'0 0.0
2017-Oct-17 13:30N 39°29' W 075°33'0 0.0
2017-Oct-17 13:01N 39°29' W 075°33'0 0.0
2017-Oct-17 12:30N 39°29' W 075°34'0 0.0
2017-Oct-17 12:01N 39°29' W 075°33'0 0.0
2017-Oct-17 11:31N 39°29' W 075°33'0 0.0
2017-Oct-17 11:01N 39°29' W 075°33'0 0.3
2017-Oct-17 10:31N 39°29' W 075°34'3 6.6
2017-Oct-17 10:01N 39°26' W 075°32'4 7.3
2017-Oct-17 09:30N 39°24' W 075°29'3 6.9
2017-Oct-17 09:00N 39°21' W 075°26'3 6.5
2017-Oct-17 08:31N 39°19' W 075°23'3 6.6
2017-Oct-17 08:01N 39°16' W 075°21'3 6.6
2017-Oct-17 07:31N 39°14' W 075°18'3 6.8
2017-Oct-17 07:01N 39°11' W 075°16'4 7.2
2017-Oct-17 06:31N 39°08' W 075°13'1 1.5
2017-Oct-17 06:00N 39°07' W 075°13'0 0.1
2017-Oct-17 05:31N 39°07' W 075°13'0 0.3
2017-Oct-17 05:01N 39°07' W 075°13'1 1.0
2017-Oct-17 04:30N 39°07' W 075°13'1 2.9
2017-Oct-17 04:00N 39°08' W 075°14'0 0.8
2017-Oct-17 03:30N 39°08' W 075°14'1 1.9
2017-Oct-17 03:01N 39°07' W 075°13'1 1.1
2017-Oct-17 02:31N 39°07' W 075°13'0 0.2
2017-Oct-17 02:01N 39°07' W 075°13'0 0.5
2017-Oct-17 01:30N 39°07' W 075°13'1 1.2
2017-Oct-17 01:00N 39°07' W 075°13'0 0.9
2017-Oct-17 00:31N 39°07' W 075°13'0 0.9
2017-Oct-17 00:01N 39°07' W 075°13'3 6.3
2017-Oct-16 23:31N 39°10' W 075°16'4 7.3
2017-Oct-16 23:00N 39°13' W 075°18'4 7.2
2017-Oct-16 22:31N 39°16' W 075°21'4 7.9
2017-Oct-16 22:01N 39°19' W 075°24'4 8.5
2017-Oct-16 21:31N 39°22' W 075°28'4 9.0
2017-Oct-16 21:01N 39°26' W 075°32'4 7.7
2017-Oct-16 20:30N 39°29' W 075°34'0 0.3
2017-Oct-16 20:00N 39°29' W 075°34'0 0.0
2017-Oct-16 19:31N 39°29' W 075°34'0 0.0
2017-Oct-16 19:01N 39°29' W 075°34'0 0.0
2017-Oct-16 18:30N 39°29' W 075°34'0 0.0
2017-Oct-16 18:00N 39°29' W 075°34'0 0.0
2017-Oct-16 17:30N 39°29' W 075°34'0 0.0
2017-Oct-16 17:00N 39°29' W 075°34'0 0.0
2017-Oct-16 16:31N 39°29' W 075°34'0 0.0
2017-Oct-16 16:01N 39°29' W 075°34'0 0.0
2017-Oct-16 15:31N 39°29' W 075°34'0 0.0
2017-Oct-16 15:01N 39°29' W 075°34'2 1.7
2017-Oct-16 14:01N 39°28' W 075°34'4 7.9
2017-Oct-16 13:31N 39°25' W 075°30'4 7.8
2017-Oct-16 13:01N 39°22' W 075°27'4 8.2
2017-Oct-16 12:30N 39°19' W 075°23'4 8.2
2017-Oct-16 12:00N 39°16' W 075°20'4 7.5
2017-Oct-16 11:30N 39°12' W 075°17'4 8.0
2017-Oct-16 11:00N 39°09' W 075°15'3 5.1
2017-Oct-16 10:30N 39°07' W 075°13'0 0.8
2017-Oct-16 10:01N 39°07' W 075°13'0 0.5
2017-Oct-16 09:31N 39°07' W 075°13'0 0.2
2017-Oct-16 09:00N 39°07' W 075°13'0 0.6
2017-Oct-16 08:31N 39°07' W 075°13'0 0.6
2017-Oct-16 08:01N 39°07' W 075°13'0 0.5
2017-Oct-16 07:30N 39°07' W 075°13'0 0.6
2017-Oct-16 07:01N 39°07' W 075°13'1 2.4
2017-Oct-16 06:31N 39°08' W 075°14'2 3.2
2017-Oct-16 06:01N 39°09' W 075°15'4 7.6
2017-Oct-16 05:31N 39°12' W 075°17'4 8.0
2017-Oct-16 05:00N 39°16' W 075°20'4 8.6
2017-Oct-16 04:30N 39°19' W 075°24'510.5
2017-Oct-16 04:00N 39°23' W 075°28'5 9.5
2017-Oct-16 03:30N 39°26' W 075°33'3 6.1
2017-Oct-16 03:01N 39°29' W 075°34'0 0.1
2017-Oct-16 02:31N 39°29' W 075°34'0 0.0
2017-Oct-16 02:01N 39°29' W 075°34'0 0.0
2017-Oct-16 01:31N 39°29' W 075°34'0 0.0
2017-Oct-16 01:00N 39°29' W 075°34'0 0.0
2017-Oct-16 00:31N 39°29' W 075°34'0 0.0
2017-Oct-16 00:01N 39°29' W 075°34'0 0.0
2017-Oct-15 23:30N 39°29' W 075°34'0 0.0
2017-Oct-15 23:01N 39°29' W 075°34'0 0.0
2017-Oct-15 22:30N 39°29' W 075°34'0 0.0
2017-Oct-15 22:00N 39°29' W 075°34'0 0.0
2017-Oct-15 21:31N 39°29' W 075°34'0 0.0
2017-Oct-15 21:01N 39°29' W 075°34'0 0.1
2017-Oct-15 20:31N 39°29' W 075°34'0 0.5
2017-Oct-15 20:00N 39°29' W 075°34'4 7.5
2017-Oct-15 19:31N 39°26' W 075°32'4 8.3
2017-Oct-15 19:01N 39°23' W 075°28'4 8.0
2017-Oct-15 18:31N 39°20' W 075°25'4 7.1
2017-Oct-15 18:00N 39°17' W 075°22'4 7.1
2017-Oct-15 17:30N 39°14' W 075°19'4 7.4
2017-Oct-15 17:01N 39°11' W 075°16'4 7.3
2017-Oct-15 16:30N 39°08' W 075°14'1 2.2
2017-Oct-15 16:00N 39°07' W 075°13'0 0.2
2017-Oct-15 15:31N 39°07' W 075°13'1 1.1
2017-Oct-15 15:00N 39°07' W 075°13'1 0.5
2017-Oct-15 14:00N 39°07' W 075°13'0 0.9
2017-Oct-15 13:30N 39°07' W 075°13'1 1.5
2017-Oct-15 12:59N 39°07' W 075°13'0 1.0
2017-Oct-15 12:31N 39°07' W 075°13'1 1.9
2017-Oct-15 12:00N 39°08' W 075°14'1 1.4
2017-Oct-15 11:30N 39°08' W 075°14'3 6.8
2017-Oct-15 11:00N 39°11' W 075°16'5 9.1
2017-Oct-15 10:30N 39°15' W 075°19'4 8.6
2017-Oct-15 10:00N 39°18' W 075°23'4 8.2
2017-Oct-15 09:30N 39°21' W 075°27'4 8.5
2017-Oct-15 09:00N 39°24' W 075°30'4 8.6
2017-Oct-15 08:30N 39°28' W 075°34'1 2.7
2017-Oct-15 08:00N 39°29' W 075°34'0 0.0
2017-Oct-15 07:31N 39°29' W 075°34'0 0.0
2017-Oct-15 07:00N 39°29' W 075°34'0 0.0
2017-Oct-15 06:30N 39°29' W 075°34'0 0.0
2017-Oct-15 06:00N 39°29' W 075°34'0 0.0
2017-Oct-15 05:30N 39°29' W 075°34'0 0.0
2017-Oct-15 05:00N 39°29' W 075°34'0 0.0
2017-Oct-15 04:30N 39°29' W 075°34'0 0.0
2017-Oct-15 04:00N 39°29' W 075°34'0 0.0
2017-Oct-15 03:30N 39°29' W 075°34'0 0.1
2017-Oct-15 03:00N 39°29' W 075°34'1 1.3
2017-Oct-15 02:30N 39°29' W 075°34'4 7.4
2017-Oct-15 02:00N 39°25' W 075°31'4 8.3
2017-Oct-15 01:30N 39°22' W 075°28'4 8.7
2017-Oct-15 01:00N 39°19' W 075°24'4 9.0
2017-Oct-15 00:30N 39°16' W 075°20'4 8.9
2017-Oct-15 00:00N 39°12' W 075°17'4 8.9
2017-Oct-14 23:30N 39°08' W 075°14'1 2.7
2017-Oct-14 23:00N 39°07' W 075°13'1 1.4
2017-Oct-14 22:30N 39°07' W 075°12'1 1.1
2017-Oct-14 22:00N 39°07' W 075°13'1 2.0
2017-Oct-14 21:30N 39°08' W 075°14'0 1.0
2017-Oct-14 21:01N 39°08' W 075°14'1 1.7
2017-Oct-14 20:30N 39°08' W 075°13'1 1.6
2017-Oct-14 20:01N 39°07' W 075°13'0 0.3
2017-Oct-14 19:30N 39°07' W 075°13'0 0.6
2017-Oct-14 19:00N 39°07' W 075°13'2 4.7
2017-Oct-14 18:30N 39°09' W 075°15'4 7.3
2017-Oct-14 18:00N 39°12' W 075°17'4 8.4
2017-Oct-14 17:30N 39°16' W 075°20'5 9.2
2017-Oct-14 17:00N 39°19' W 075°24'5 9.7
2017-Oct-14 16:30N 39°23' W 075°29'510.1
2017-Oct-14 16:01N 39°27' W 075°33'3 5.3
2017-Oct-14 15:30N 39°29' W 075°34'0 0.1
2017-Oct-14 15:01N 39°29' W 075°34'0 0.0
2017-Oct-14 14:30N 39°29' W 075°34'0 0.0
2017-Oct-14 14:00N 39°29' W 075°34'0 0.0
2017-Oct-14 13:30N 39°29' W 075°34'0 0.0
2017-Oct-14 13:00N 39°29' W 075°34'0 0.0
2017-Oct-14 12:31N 39°29' W 075°34'0 0.0
2017-Oct-14 12:00N 39°29' W 075°34'0 0.1
2017-Oct-14 11:30N 39°29' W 075°34'1 1.3
2017-Oct-14 11:00N 39°29' W 075°34'4 8.3
2017-Oct-14 10:30N 39°25' W 075°31'4 8.0
2017-Oct-14 10:00N 39°22' W 075°28'4 8.0
2017-Oct-14 09:31N 39°19' W 075°24'4 8.4
2017-Oct-14 09:01N 39°16' W 075°20'4 8.1
2017-Oct-14 08:31N 39°13' W 075°17'4 8.1
2017-Oct-14 08:01N 39°09' W 075°15'2 4.7
2017-Oct-14 07:31N 39°07' W 075°13'0 0.0
2017-Oct-14 07:01N 39°07' W 075°13'0 0.3
2017-Oct-14 06:30N 39°07' W 075°13'1 1.4
2017-Oct-14 06:01N 39°07' W 075°12'1 1.1
2017-Oct-14 05:30N 39°07' W 075°13'0 0.6
2017-Oct-14 05:00N 39°07' W 075°13'1 1.3
2017-Oct-14 04:31N 39°07' W 075°13'0 0.6
2017-Oct-14 04:01N 39°07' W 075°13'1 1.3
2017-Oct-14 03:31N 39°07' W 075°13'1 0.6
2017-Oct-14 02:31N 39°07' W 075°13'0 0.7
2017-Oct-14 02:31N 39°07' W 075°13'1 1.1
2017-Oct-14 02:01N 39°07' W 075°13'1 1.0
2017-Oct-14 01:28N 39°07' W 075°13'0 0.6
2017-Oct-14 01:01N 39°07' W 075°13'5 9.4
2017-Oct-14 00:30N 39°11' W 075°16'5 9.3
2017-Oct-14 00:01N 39°15' W 075°19'5 9.5
2017-Oct-13 23:30N 39°18' W 075°23'5 9.9
2017-Oct-13 23:01N 39°22' W 075°27'5 9.9
2017-Oct-13 22:31N 39°26' W 075°32'4 8.0
2017-Oct-13 22:01N 39°29' W 075°34'0 0.4
2017-Oct-13 21:30N 39°29' W 075°34'0 0.0
2017-Oct-13 21:00N 39°29' W 075°34'0 0.0
2017-Oct-13 20:31N 39°29' W 075°34'0 0.0
2017-Oct-13 20:00N 39°29' W 075°34'0 0.0
2017-Oct-13 19:31N 39°29' W 075°34'0 0.0
2017-Oct-13 19:01N 39°29' W 075°34'0 0.0
2017-Oct-13 18:31N 39°29' W 075°34'0 0.0
2017-Oct-13 18:01N 39°29' W 075°34'0 0.0
2017-Oct-13 17:31N 39°29' W 075°34'0 0.0
2017-Oct-13 17:01N 39°29' W 075°34'0 0.0
2017-Oct-13 16:31N 39°29' W 075°34'0 0.1
2017-Oct-13 16:01N 39°29' W 075°34'3 5.6
2017-Oct-13 15:31N 39°27' W 075°33'3 5.8
2017-Oct-13 15:01N 39°24' W 075°30'2 4.6
2017-Oct-13 14:31N 39°23' W 075°28'4 8.7
2017-Oct-13 14:00N 39°19' W 075°24'4 7.7
2017-Oct-13 13:31N 39°17' W 075°21'4 7.8
2017-Oct-13 13:01N 39°14' W 075°18'4 8.1
2017-Oct-13 12:31N 39°10' W 075°16'3 6.6
2017-Oct-13 12:01N 39°07' W 075°13'1 1.1
2017-Oct-13 11:31N 39°07' W 075°13'0 0.9
2017-Oct-13 11:01N 39°07' W 075°13'1 1.3
2017-Oct-13 10:31N 39°07' W 075°13'1 1.3
2017-Oct-13 10:01N 39°07' W 075°13'0 0.6
2017-Oct-13 09:31N 39°07' W 075°13'0 0.4
2017-Oct-13 09:01N 39°07' W 075°13'1 1.5
2017-Oct-13 08:31N 39°07' W 075°12'1 1.0
2017-Oct-13 08:01N 39°06' W 075°12'1 1.4
2017-Oct-13 07:30N 39°07' W 075°13'1 1.3
2017-Oct-13 07:01N 39°07' W 075°13'1 2.5
2017-Oct-13 06:30N 39°08' W 075°14'4 8.0
2017-Oct-13 05:58N 39°12' W 075°17'4 8.1
2017-Oct-13 05:30N 39°15' W 075°19'5 9.1
2017-Oct-13 05:01N 39°18' W 075°23'5 9.4
2017-Oct-13 04:31N 39°22' W 075°27'5 9.6
2017-Oct-13 04:01N 39°26' W 075°32'4 7.9
2017-Oct-13 03:31N 39°29' W 075°34'0 0.4
2017-Oct-13 03:00N 39°29' W 075°34'0 0.0
2017-Oct-13 02:31N 39°29' W 075°34'0 0.0
2017-Oct-13 02:00N 39°29' W 075°34'0 0.0
2017-Oct-13 01:31N 39°29' W 075°34'0 0.0
2017-Oct-13 01:01N 39°29' W 075°34'0 0.0
2017-Oct-13 00:31N 39°29' W 075°34'0 0.0
2017-Oct-13 00:01N 39°29' W 075°34'0 0.0
2017-Oct-12 23:30N 39°29' W 075°34'0 0.0
2017-Oct-12 23:01N 39°29' W 075°34'0 0.1
2017-Oct-12 22:31N 39°29' W 075°34'3 5.0
2017-Oct-12 22:01N 39°27' W 075°33'510.3
2017-Oct-12 21:31N 39°23' W 075°29'510.1
2017-Oct-12 21:01N 39°19' W 075°24'5 9.6
2017-Oct-12 20:31N 39°16' W 075°20'5 9.2
2017-Oct-12 20:01N 39°12' W 075°17'5 9.5
2017-Oct-12 19:31N 39°08' W 075°14'1 2.8
2017-Oct-12 19:01N 39°07' W 075°13'1 1.8
2017-Oct-12 18:30N 39°06' W 075°12'0 0.9
2017-Oct-12 18:01N 39°06' W 075°12'0 0.8
2017-Oct-12 17:31N 39°07' W 075°13'0 0.8
2017-Oct-12 17:01N 39°07' W 075°13'1 1.3
2017-Oct-12 16:30N 39°08' W 075°13'1 2.1
2017-Oct-12 16:00N 39°07' W 075°13'1 1.1
2017-Oct-12 15:31N 39°06' W 075°12'1 1.1
2017-Oct-12 15:01N 39°07' W 075°13'1 1.2
2017-Oct-12 14:31N 39°07' W 075°13'2 4.3
2017-Oct-12 14:00N 39°09' W 075°15'4 8.4
2017-Oct-12 13:30N 39°13' W 075°17'4 8.6
2017-Oct-12 13:01N 39°16' W 075°21'5 9.3
2017-Oct-12 12:31N 39°20' W 075°25'5 9.2
2017-Oct-12 12:01N 39°23' W 075°29'4 8.8
2017-Oct-12 11:31N 39°26' W 075°32'3 6.6
2017-Oct-12 11:01N 39°29' W 075°34'0 0.1
2017-Oct-12 10:31N 39°29' W 075°34'0 0.0
2017-Oct-12 10:01N 39°29' W 075°34'0 0.0
2017-Oct-12 09:31N 39°29' W 075°34'0 0.0
2017-Oct-12 09:01N 39°29' W 075°34'0 0.0
2017-Oct-12 08:30N 39°29' W 075°34'0 0.0
2017-Oct-12 08:01N 39°29' W 075°33'0 0.0
2017-Oct-12 07:31N 39°29' W 075°33'0 0.0
2017-Oct-12 07:00N 39°29' W 075°33'0 0.0
2017-Oct-12 06:30N 39°29' W 075°33'1 1.6
2017-Oct-12 06:01N 39°29' W 075°34'510.7
2017-Oct-12 05:31N 39°24' W 075°30'511.0
2017-Oct-12 05:01N 39°20' W 075°25'510.8
2017-Oct-12 04:30N 39°16' W 075°20'510.3
2017-Oct-12 04:00N 39°12' W 075°17'5 9.1
2017-Oct-12 03:30N 39°08' W 075°14'1 2.1
2017-Oct-12 03:00N 39°07' W 075°13'0 0.8
2017-Oct-12 02:30N 39°07' W 075°13'0 0.5
2017-Oct-12 02:00N 39°07' W 075°13'0 0.9
2017-Oct-12 01:30N 39°07' W 075°13'1 1.6
2017-Oct-12 01:01N 39°07' W 075°13'0 0.9
2017-Oct-12 00:30N 39°07' W 075°13'0 0.8
2017-Oct-12 00:00N 39°07' W 075°13'0 0.7
2017-Oct-11 23:30N 39°06' W 075°12'0 0.6
2017-Oct-11 23:00N 39°06' W 075°12'2 3.7
2017-Oct-11 22:30N 39°08' W 075°14'5 9.3
2017-Oct-11 22:00N 39°12' W 075°17'5 9.4
2017-Oct-11 21:30N 39°16' W 075°20'5 9.9
2017-Oct-11 21:00N 39°19' W 075°24'5 9.3
2017-Oct-11 20:30N 39°23' W 075°28'4 9.0
2017-Oct-11 20:01N 39°26' W 075°32'3 6.9
2017-Oct-11 19:30N 39°29' W 075°34'0 0.2
2017-Oct-11 19:01N 39°29' W 075°33'0 0.0
2017-Oct-11 18:31N 39°29' W 075°33'0 0.0
2017-Oct-11 18:00N 39°29' W 075°33'0 0.0
2017-Oct-11 17:31N 39°29' W 075°33'0 0.0
2017-Oct-11 17:01N 39°29' W 075°33'0 0.0
2017-Oct-11 00:00N 39°29' W 075°34'0 0.0
2017-Oct-10 23:30N 39°29' W 075°34'0 0.0
2017-Oct-10 23:01N 39°29' W 075°34'0 0.0
2017-Oct-10 22:31N 39°29' W 075°34'0 0.0
2017-Oct-10 22:01N 39°29' W 075°34'0 0.0
2017-Oct-10 21:31N 39°29' W 075°34'0 0.0
2017-Oct-10 21:01N 39°29' W 075°34'0 0.1
2017-Oct-10 20:31N 39°29' W 075°34'4 7.1
2017-Oct-10 20:01N 39°26' W 075°32'510.9
2017-Oct-10 19:31N 39°22' W 075°27'611.6
2017-Oct-10 19:00N 39°18' W 075°22'611.3
2017-Oct-10 18:30N 39°13' W 075°18'510.9
2017-Oct-10 18:01N 39°09' W 075°14'3 5.9
2017-Oct-10 17:31N 39°06' W 075°12'1 1.5
2017-Oct-10 16:56N 39°07' W 075°13'1 1.2
2017-Oct-10 16:31N 39°07' W 075°13'0 0.4
2017-Oct-10 16:00N 39°07' W 075°13'1 1.9
2017-Oct-10 15:30N 39°06' W 075°12'0 0.6
2017-Oct-10 15:00N 39°07' W 075°12'1 0.8
2017-Oct-10 14:00N 39°07' W 075°13'0 0.1
2017-Oct-10 13:31N 39°07' W 075°13'1 1.5
2017-Oct-10 13:00N 39°07' W 075°12'0 0.9
2017-Oct-10 12:30N 39°06' W 075°12'0 0.2
2017-Oct-10 12:00N 39°06' W 075°12'1 2.6
2017-Oct-10 11:30N 39°07' W 075°13'3 5.1
2017-Oct-10 11:00N 39°09' W 075°15'5 9.8
2017-Oct-10 10:31N 39°14' W 075°18'5 9.6
2017-Oct-10 10:00N 39°17' W 075°22'510.3
2017-Oct-10 09:31N 39°21' W 075°26'5 9.6
2017-Oct-10 09:00N 39°25' W 075°31'4 8.5
2017-Oct-10 08:30N 39°28' W 075°34'1 2.2
2017-Oct-10 08:00N 39°29' W 075°34'0 0.0
2017-Oct-10 07:30N 39°29' W 075°33'0 0.0
2017-Oct-10 07:00N 39°29' W 075°33'0 0.0
2017-Oct-10 06:30N 39°29' W 075°33'0 0.0
2017-Oct-10 06:00N 39°29' W 075°33'0 0.0
2017-Oct-10 05:30N 39°29' W 075°33'0 0.0
2017-Oct-10 05:00N 39°29' W 075°33'0 0.0
2017-Oct-10 04:30N 39°29' W 075°33'0 0.0
2017-Oct-10 04:01N 39°29' W 075°33'0 0.0
2017-Oct-10 03:31N 39°29' W 075°34'0 0.4
2017-Oct-10 03:01N 39°30' W 075°34'4 7.5
2017-Oct-10 02:31N 39°26' W 075°32'4 8.5
2017-Oct-10 02:01N 39°23' W 075°28'4 8.1
2017-Oct-10 01:31N 39°20' W 075°25'4 7.6
2017-Oct-10 01:01N 39°17' W 075°22'4 7.9
2017-Oct-10 00:31N 39°14' W 075°18'4 7.1
2017-Oct-10 00:01N 39°11' W 075°16'4 7.9
2017-Oct-09 23:31N 39°08' W 075°13'0 0.9
2017-Oct-09 23:01N 39°07' W 075°13'0 0.2
2017-Oct-09 22:31N 39°07' W 075°13'1 1.0
2017-Oct-09 22:01N 39°07' W 075°13'1 1.0
2017-Oct-09 21:31N 39°07' W 075°13'0 0.1
2017-Oct-09 21:01N 39°07' W 075°13'1 1.1
2017-Oct-09 20:31N 39°07' W 075°13'1 1.2
2017-Oct-09 20:01N 39°07' W 075°13'0 0.3
2017-Oct-09 19:31N 39°07' W 075°13'1 1.2
2017-Oct-09 19:01N 39°07' W 075°13'1 1.4
2017-Oct-09 18:31N 39°06' W 075°12'0 0.7
2017-Oct-09 18:00N 39°06' W 075°12'1 1.5
2017-Oct-09 17:31N 39°07' W 075°13'2 3.3
2017-Oct-09 17:00N 39°08' W 075°14'5 9.2
2017-Oct-09 16:31N 39°12' W 075°17'4 8.5
2017-Oct-09 16:01N 39°16' W 075°20'4 8.2
2017-Oct-09 15:30N 39°19' W 075°24'4 8.3
2017-Oct-09 15:00N 39°22' W 075°27'4 7.3
2017-Oct-09 14:30N 39°25' W 075°31'4 7.6
2017-Oct-09 14:01N 39°28' W 075°34'2 3.4
2017-Oct-09 13:30N 39°29' W 075°34'0 0.1
2017-Oct-09 13:00N 39°29' W 075°34'0 0.0
2017-Oct-09 12:30N 39°29' W 075°34'0 0.0
2017-Oct-09 12:01N 39°29' W 075°34'0 0.0
2017-Oct-09 11:31N 39°29' W 075°34'0 0.0
2017-Oct-09 11:01N 39°29' W 075°34'0 0.0
2017-Oct-09 10:31N 39°29' W 075°34'0 0.0
2017-Oct-09 10:01N 39°29' W 075°34'0 0.0
2017-Oct-09 09:30N 39°29' W 075°34'0 0.0
2017-Oct-09 09:00N 39°29' W 075°34'  
Track history (hours):
 
Tides and Currents Weather Stations Pressure Air Temp Water Temp Dewpoint Dewpoint Depression Visibility Wind Speed Wind Dir Waves Ship Positions

Stuyvesant

Owner: THE DUTRA GROUP, SAN RAFAEL, CA. More information available from US FCC via Universal Licensing System and Coast Guard Vessel Documentation Center.

Last reported at 2017-Oct-19 09:00 UTC. Time now 2017-Oct-19 09:03 UTC.
Position N 39°07' W 075°13'.

Length 122 m; draft 10 m.

Type: Dredging. MMSI: 368098000.

Date/timePositionNaut miles runAvg speedWind from/ knotsBaromVisibWave heightAir tempDewpointWater temp
2017-Oct-19 09:00N 39°07' W 075°13'1 2.4
2017-Oct-19 08:30N 39°08' W 075°14'0 0.7
2017-Oct-19 08:00N 39°08' W 075°14'5 9.1
2017-Oct-19 07:30N 39°12' W 075°17'510.2
2017-Oct-19 07:00N 39°16' W 075°21'510.3
2017-Oct-19 06:30N 39°20' W 075°25'5 9.9
2017-Oct-19 06:00N 39°24' W 075°30'510.1
2017-Oct-19 05:30N 39°28' W 075°34'2 3.1
2017-Oct-19 05:00N 39°29' W 075°34'0 0.1
2017-Oct-19 04:30N 39°29' W 075°34'0 0.0
2017-Oct-19 04:00N 39°29' W 075°33'0 0.0
2017-Oct-19 03:30N 39°29' W 075°33'0 0.0
2017-Oct-19 03:00N 39°29' W 075°33'0 0.0
2017-Oct-19 02:30N 39°29' W 075°33'0 0.0
2017-Oct-19 02:01N 39°29' W 075°33'0 0.0
2017-Oct-19 01:30N 39°29' W 075°33'0 0.0
2017-Oct-19 01:00N 39°29' W 075°33'0 0.0
2017-Oct-19 00:30N 39°29' W 075°34'0 0.0
2017-Oct-19 00:01N 39°29' W 075°34'0 0.1
2017-Oct-18 23:31N 39°29' W 075°34'2 4.1
2017-Oct-18 23:01N 39°27' W 075°33'4 8.4
2017-Oct-18 22:31N 39°24' W 075°30'3 6.2
2017-Oct-18 22:01N 39°22' W 075°27'4 7.4
2017-Oct-18 21:31N 39°19' W 075°24'4 7.4
2017-Oct-18 21:00N 39°16' W 075°21'3 6.2
2017-Oct-18 20:31N 39°14' W 075°18'2 4.6
2017-Oct-18 20:01N 39°12' W 075°17'3 5.9
2017-Oct-18 19:30N 39°09' W 075°15'3 5.1
2017-Oct-18 19:01N 39°07' W 075°13'1 1.6
2017-Oct-18 18:31N 39°07' W 075°13'0 0.1
2017-Oct-18 18:00N 39°07' W 075°13'1 1.2
2017-Oct-18 17:30N 39°07' W 075°13'0 0.0
2017-Oct-18 17:01N 39°07' W 075°13'0 0.9
2017-Oct-18 16:31N 39°07' W 075°13'0 0.8
2017-Oct-18 16:01N 39°06' W 075°12'1 1.4
2017-Oct-18 15:31N 39°07' W 075°13'0 0.8
2017-Oct-18 15:01N 39°07' W 075°13'0 0.4
2017-Oct-18 13:53N 39°07' W 075°13'1 1.4
2017-Oct-18 13:30N 39°07' W 075°13'1 1.7
2017-Oct-18 13:00N 39°08' W 075°14'2 3.2
2017-Oct-18 12:30N 39°09' W 075°15'4 8.1
2017-Oct-18 12:00N 39°13' W 075°18'4 8.0
2017-Oct-18 11:30N 39°16' W 075°21'4 8.1
2017-Oct-18 11:00N 39°19' W 075°24'4 8.0
2017-Oct-18 10:30N 39°22' W 075°28'4 8.9
2017-Oct-18 10:00N 39°26' W 075°32'4 8.0
2017-Oct-18 09:31N 39°29' W 075°34'0 0.3
2017-Oct-18 09:00N 39°29' W 075°34'0 0.0
2017-Oct-18 08:30N 39°29' W 075°34'0 0.0
2017-Oct-18 08:00N 39°29' W 075°34'0 0.0
2017-Oct-18 07:30N 39°29' W 075°34'0 0.0
2017-Oct-18 07:00N 39°29' W 075°34'0 0.0
2017-Oct-18 06:30N 39°29' W 075°34'0 0.0
2017-Oct-18 06:00N 39°29' W 075°34'0 0.0
2017-Oct-18 05:30N 39°29' W 075°34'0 0.0
2017-Oct-18 05:00N 39°29' W 075°34'0 0.1
2017-Oct-18 04:31N 39°29' W 075°34'2 5.0
2017-Oct-18 04:00N 39°27' W 075°33'4 8.4
2017-Oct-18 03:30N 39°24' W 075°29'4 8.9
2017-Oct-18 03:01N 39°20' W 075°26'4 8.4
2017-Oct-18 02:31N 39°17' W 075°22'4 8.9
2017-Oct-18 02:01N 39°14' W 075°18'4 8.8
2017-Oct-18 01:30N 39°10' W 075°16'4 7.0
2017-Oct-18 01:00N 39°07' W 075°13'0 0.2
2017-Oct-18 00:31N 39°07' W 075°13'0 0.4
2017-Oct-18 00:00N 39°07' W 075°13'0 0.8
2017-Oct-17 23:31N 39°07' W 075°13'0 0.7
2017-Oct-17 23:01N 39°07' W 075°13'0 0.1
2017-Oct-17 22:30N 39°07' W 075°13'0 0.8
2017-Oct-17 22:00N 39°07' W 075°13'1 1.4
2017-Oct-17 21:30N 39°07' W 075°13'1 1.4
2017-Oct-17 20:54N 39°07' W 075°13'0 0.9
2017-Oct-17 20:30N 39°07' W 075°13'0 0.8
2017-Oct-17 20:00N 39°07' W 075°13'1 1.1
2017-Oct-17 19:30N 39°07' W 075°13'2 3.4
2017-Oct-17 19:01N 39°09' W 075°14'4 8.0
2017-Oct-17 18:29N 39°12' W 075°17'4 9.3
2017-Oct-17 18:01N 39°16' W 075°20'5 9.6
2017-Oct-17 17:30N 39°19' W 075°25'5 9.3
2017-Oct-17 17:00N 39°23' W 075°29'4 9.0
2017-Oct-17 16:31N 39°26' W 075°32'3 6.5
2017-Oct-17 16:01N 39°29' W 075°33'0 0.1
2017-Oct-17 15:31N 39°29' W 075°34'0 0.0
2017-Oct-17 15:01N 39°29' W 075°34'0 0.0
2017-Oct-17 14:30N 39°29' W 075°33'0 0.0
2017-Oct-17 14:01N 39°29' W 075°33'0 0.0
2017-Oct-17 13:30N 39°29' W 075°33'0 0.0
2017-Oct-17 13:01N 39°29' W 075°33'0 0.0
2017-Oct-17 12:30N 39°29' W 075°34'0 0.0
2017-Oct-17 12:01N 39°29' W 075°33'0 0.0
2017-Oct-17 11:31N 39°29' W 075°33'0 0.0
2017-Oct-17 11:01N 39°29' W 075°33'0 0.3
2017-Oct-17 10:31N 39°29' W 075°34'3 6.6
2017-Oct-17 10:01N 39°26' W 075°32'4 7.3
2017-Oct-17 09:30N 39°24' W 075°29'3 6.9
2017-Oct-17 09:00N 39°21' W 075°26'3 6.5
2017-Oct-17 08:31N 39°19' W 075°23'3 6.6
2017-Oct-17 08:01N 39°16' W 075°21'3 6.6
2017-Oct-17 07:31N 39°14' W 075°18'3 6.8
2017-Oct-17 07:01N 39°11' W 075°16'4 7.2
2017-Oct-17 06:31N 39°08' W 075°13'1 1.5
2017-Oct-17 06:00N 39°07' W 075°13'0 0.1
2017-Oct-17 05:31N 39°07' W 075°13'0 0.3
2017-Oct-17 05:01N 39°07' W 075°13'1 1.0
2017-Oct-17 04:30N 39°07' W 075°13'1 2.9
2017-Oct-17 04:00N 39°08' W 075°14'0 0.8
2017-Oct-17 03:30N 39°08' W 075°14'1 1.9
2017-Oct-17 03:01N 39°07' W 075°13'1 1.1
2017-Oct-17 02:31N 39°07' W 075°13'0 0.2
2017-Oct-17 02:01N 39°07' W 075°13'0 0.5
2017-Oct-17 01:30N 39°07' W 075°13'1 1.2
2017-Oct-17 01:00N 39°07' W 075°13'0 0.9
2017-Oct-17 00:31N 39°07' W 075°13'0 0.9
2017-Oct-17 00:01N 39°07' W 075°13'3 6.3
2017-Oct-16 23:31N 39°10' W 075°16'4 7.3
2017-Oct-16 23:00N 39°13' W 075°18'4 7.2
2017-Oct-16 22:31N 39°16' W 075°21'4 7.9
2017-Oct-16 22:01N 39°19' W 075°24'4 8.5
2017-Oct-16 21:31N 39°22' W 075°28'4 9.0
2017-Oct-16 21:01N 39°26' W 075°32'4 7.7
2017-Oct-16 20:30N 39°29' W 075°34'0 0.3
2017-Oct-16 20:00N 39°29' W 075°34'0 0.0
2017-Oct-16 19:31N 39°29' W 075°34'0 0.0
2017-Oct-16 19:01N 39°29' W 075°34'0 0.0
2017-Oct-16 18:30N 39°29' W 075°34'0 0.0
2017-Oct-16 18:00N 39°29' W 075°34'0 0.0
2017-Oct-16 17:30N 39°29' W 075°34'0 0.0
2017-Oct-16 17:00N 39°29' W 075°34'0 0.0
2017-Oct-16 16:31N 39°29' W 075°34'0 0.0
2017-Oct-16 16:01N 39°29' W 075°34'0 0.0
2017-Oct-16 15:31N 39°29' W 075°34'0 0.0
2017-Oct-16 15:01N 39°29' W 075°34'2 1.7
2017-Oct-16 14:01N 39°28' W 075°34'4 7.9
2017-Oct-16 13:31N 39°25' W 075°30'4 7.8
2017-Oct-16 13:01N 39°22' W 075°27'4 8.2
2017-Oct-16 12:30N 39°19' W 075°23'4 8.2
2017-Oct-16 12:00N 39°16' W 075°20'4 7.5
2017-Oct-16 11:30N 39°12' W 075°17'4 8.0
2017-Oct-16 11:00N 39°09' W 075°15'3 5.1
2017-Oct-16 10:30N 39°07' W 075°13'0 0.8
2017-Oct-16 10:01N 39°07' W 075°13'0 0.5
2017-Oct-16 09:31N 39°07' W 075°13'0 0.2
2017-Oct-16 09:00N 39°07' W 075°13'0 0.6
2017-Oct-16 08:31N 39°07' W 075°13'0 0.6
2017-Oct-16 08:01N 39°07' W 075°13'0 0.5
2017-Oct-16 07:30N 39°07' W 075°13'0 0.6
2017-Oct-16 07:01N 39°07' W 075°13'1 2.4
2017-Oct-16 06:31N 39°08' W 075°14'2 3.2
2017-Oct-16 06:01N 39°09' W 075°15'4 7.6
2017-Oct-16 05:31N 39°12' W 075°17'4 8.0
2017-Oct-16 05:00N 39°16' W 075°20'4 8.6
2017-Oct-16 04:30N 39°19' W 075°24'510.5
2017-Oct-16 04:00N 39°23' W 075°28'5 9.5
2017-Oct-16 03:30N 39°26' W 075°33'3 6.1
2017-Oct-16 03:01N 39°29' W 075°34'0 0.1
2017-Oct-16 02:31N 39°29' W 075°34'0 0.0
2017-Oct-16 02:01N 39°29' W 075°34'0 0.0
2017-Oct-16 01:31N 39°29' W 075°34'0 0.0
2017-Oct-16 01:00N 39°29' W 075°34'0 0.0
2017-Oct-16 00:31N 39°29' W 075°34'0 0.0
2017-Oct-16 00:01N 39°29' W 075°34'0 0.0
2017-Oct-15 23:30N 39°29' W 075°34'0 0.0
2017-Oct-15 23:01N 39°29' W 075°34'0 0.0
2017-Oct-15 22:30N 39°29' W 075°34'0 0.0
2017-Oct-15 22:00N 39°29' W 075°34'0 0.0
2017-Oct-15 21:31N 39°29' W 075°34'0 0.0
2017-Oct-15 21:01N 39°29' W 075°34'0 0.1
2017-Oct-15 20:31N 39°29' W 075°34'0 0.5
2017-Oct-15 20:00N 39°29' W 075°34'4 7.5
2017-Oct-15 19:31N 39°26' W 075°32'4 8.3
2017-Oct-15 19:01N 39°23' W 075°28'4 8.0
2017-Oct-15 18:31N 39°20' W 075°25'4 7.1
2017-Oct-15 18:00N 39°17' W 075°22'4 7.1
2017-Oct-15 17:30N 39°14' W 075°19'4 7.4
2017-Oct-15 17:01N 39°11' W 075°16'4 7.3
2017-Oct-15 16:30N 39°08' W 075°14'1 2.2
2017-Oct-15 16:00N 39°07' W 075°13'0 0.2
2017-Oct-15 15:31N 39°07' W 075°13'1 1.1
2017-Oct-15 15:00N 39°07' W 075°13'1 0.5
2017-Oct-15 14:00N 39°07' W 075°13'0 0.9
2017-Oct-15 13:30N 39°07' W 075°13'1 1.5
2017-Oct-15 12:59N 39°07' W 075°13'0 1.0
2017-Oct-15 12:31N 39°07' W 075°13'1 1.9
2017-Oct-15 12:00N 39°08' W 075°14'1 1.4
2017-Oct-15 11:30N 39°08' W 075°14'3 6.8
2017-Oct-15 11:00N 39°11' W 075°16'5 9.1
2017-Oct-15 10:30N 39°15' W 075°19'4 8.6
2017-Oct-15 10:00N 39°18' W 075°23'4 8.2
2017-Oct-15 09:30N 39°21' W 075°27'4 8.5
2017-Oct-15 09:00N 39°24' W 075°30'4 8.6
2017-Oct-15 08:30N 39°28' W 075°34'1 2.7
2017-Oct-15 08:00N 39°29' W 075°34'0 0.0
2017-Oct-15 07:31N 39°29' W 075°34'0 0.0
2017-Oct-15 07:00N 39°29' W 075°34'0 0.0
2017-Oct-15 06:30N 39°29' W 075°34'0 0.0
2017-Oct-15 06:00N 39°29' W 075°34'0 0.0
2017-Oct-15 05:30N 39°29' W 075°34'0 0.0
2017-Oct-15 05:00N 39°29' W 075°34'0 0.0
2017-Oct-15 04:30N 39°29' W 075°34'0 0.0
2017-Oct-15 04:00N 39°29' W 075°34'0 0.0
2017-Oct-15 03:30N 39°29' W 075°34'0 0.1
2017-Oct-15 03:00N 39°29' W 075°34'1 1.3
2017-Oct-15 02:30N 39°29' W 075°34'4 7.4
2017-Oct-15 02:00N 39°25' W 075°31'4 8.3
2017-Oct-15 01:30N 39°22' W 075°28'4 8.7
2017-Oct-15 01:00N 39°19' W 075°24'4 9.0
2017-Oct-15 00:30N 39°16' W 075°20'4 8.9
2017-Oct-15 00:00N 39°12' W 075°17'4 8.9
2017-Oct-14 23:30N 39°08' W 075°14'1 2.7
2017-Oct-14 23:00N 39°07' W 075°13'1 1.4
2017-Oct-14 22:30N 39°07' W 075°12'1 1.1
2017-Oct-14 22:00N 39°07' W 075°13'1 2.0
2017-Oct-14 21:30N 39°08' W 075°14'0 1.0
2017-Oct-14 21:01N 39°08' W 075°14'1 1.7
2017-Oct-14 20:30N 39°08' W 075°13'1 1.6
2017-Oct-14 20:01N 39°07' W 075°13'0 0.3
2017-Oct-14 19:30N 39°07' W 075°13'0 0.6
2017-Oct-14 19:00N 39°07' W 075°13'2 4.7
2017-Oct-14 18:30N 39°09' W 075°15'4 7.3
2017-Oct-14 18:00N 39°12' W 075°17'4 8.4
2017-Oct-14 17:30N 39°16' W 075°20'5 9.2
2017-Oct-14 17:00N 39°19' W 075°24'5 9.7
2017-Oct-14 16:30N 39°23' W 075°29'510.1
2017-Oct-14 16:01N 39°27' W 075°33'3 5.3
2017-Oct-14 15:30N 39°29' W 075°34'0 0.1
2017-Oct-14 15:01N 39°29' W 075°34'0 0.0
2017-Oct-14 14:30N 39°29' W 075°34'0 0.0
2017-Oct-14 14:00N 39°29' W 075°34'0 0.0
2017-Oct-14 13:30N 39°29' W 075°34'0 0.0
2017-Oct-14 13:00N 39°29' W 075°34'0 0.0
2017-Oct-14 12:31N 39°29' W 075°34'0 0.0
2017-Oct-14 12:00N 39°29' W 075°34'0 0.1
2017-Oct-14 11:30N 39°29' W 075°34'1 1.3
2017-Oct-14 11:00N 39°29' W 075°34'4 8.3
2017-Oct-14 10:30N 39°25' W 075°31'4 8.0
2017-Oct-14 10:00N 39°22' W 075°28'4 8.0
2017-Oct-14 09:31N 39°19' W 075°24'4 8.4
2017-Oct-14 09:01N 39°16' W 075°20'4 8.1
2017-Oct-14 08:31N 39°13' W 075°17'4 8.1
2017-Oct-14 08:01N 39°09' W 075°15'2 4.7
2017-Oct-14 07:31N 39°07' W 075°13'0 0.0
2017-Oct-14 07:01N 39°07' W 075°13'0 0.3
2017-Oct-14 06:30N 39°07' W 075°13'1 1.4
2017-Oct-14 06:01N 39°07' W 075°12'1 1.1
2017-Oct-14 05:30N 39°07' W 075°13'0 0.6
2017-Oct-14 05:00N 39°07' W 075°13'1 1.3
2017-Oct-14 04:31N 39°07' W 075°13'0 0.6
2017-Oct-14 04:01N 39°07' W 075°13'1 1.3
2017-Oct-14 03:31N 39°07' W 075°13'1 0.6
2017-Oct-14 02:31N 39°07' W 075°13'0 0.7
2017-Oct-14 02:31N 39°07' W 075°13'1 1.1
2017-Oct-14 02:01N 39°07' W 075°13'1 1.0
2017-Oct-14 01:28N 39°07' W 075°13'0 0.6
2017-Oct-14 01:01N 39°07' W 075°13'5 9.4
2017-Oct-14 00:30N 39°11' W 075°16'5 9.3
2017-Oct-14 00:01N 39°15' W 075°19'5 9.5
2017-Oct-13 23:30N 39°18' W 075°23'5 9.9
2017-Oct-13 23:01N 39°22' W 075°27'5 9.9
2017-Oct-13 22:31N 39°26' W 075°32'4 8.0
2017-Oct-13 22:01N 39°29' W 075°34'0 0.4
2017-Oct-13 21:30N 39°29' W 075°34'0 0.0
2017-Oct-13 21:00N 39°29' W 075°34'0 0.0
2017-Oct-13 20:31N 39°29' W 075°34'0 0.0
2017-Oct-13 20:00N 39°29' W 075°34'0 0.0
2017-Oct-13 19:31N 39°29' W 075°34'0 0.0
2017-Oct-13 19:01N 39°29' W 075°34'0 0.0
2017-Oct-13 18:31N 39°29' W 075°34'0 0.0
2017-Oct-13 18:01N 39°29' W 075°34'0 0.0
2017-Oct-13 17:31N 39°29' W 075°34'0 0.0
2017-Oct-13 17:01N 39°29' W 075°34'0 0.0
2017-Oct-13 16:31N 39°29' W 075°34'0 0.1
2017-Oct-13 16:01N 39°29' W 075°34'3 5.6
2017-Oct-13 15:31N 39°27' W 075°33'3 5.8
2017-Oct-13 15:01N 39°24' W 075°30'2 4.6
2017-Oct-13 14:31N 39°23' W 075°28'4 8.7
2017-Oct-13 14:00N 39°19' W 075°24'4 7.7
2017-Oct-13 13:31N 39°17' W 075°21'4 7.8
2017-Oct-13 13:01N 39°14' W 075°18'4 8.1
2017-Oct-13 12:31N 39°10' W 075°16'3 6.6
2017-Oct-13 12:01N 39°07' W 075°13'1 1.1
2017-Oct-13 11:31N 39°07' W 075°13'0 0.9
2017-Oct-13 11:01N 39°07' W 075°13'1 1.3
2017-Oct-13 10:31N 39°07' W 075°13'1 1.3
2017-Oct-13 10:01N 39°07' W 075°13'0 0.6
2017-Oct-13 09:31N 39°07' W 075°13'0 0.4
2017-Oct-13 09:01N 39°07' W 075°13'1 1.5
2017-Oct-13 08:31N 39°07' W 075°12'1 1.0
2017-Oct-13 08:01N 39°06' W 075°12'1 1.4
2017-Oct-13 07:30N 39°07' W 075°13'1 1.3
2017-Oct-13 07:01N 39°07' W 075°13'1 2.5
2017-Oct-13 06:30N 39°08' W 075°14'4 8.0
2017-Oct-13 05:58N 39°12' W 075°17'4 8.1
2017-Oct-13 05:30N 39°15' W 075°19'5 9.1
2017-Oct-13 05:01N 39°18' W 075°23'5 9.4
2017-Oct-13 04:31N 39°22' W 075°27'5 9.6
2017-Oct-13 04:01N 39°26' W 075°32'4 7.9
2017-Oct-13 03:31N 39°29' W 075°34'0 0.4
2017-Oct-13 03:00N 39°29' W 075°34'0 0.0
2017-Oct-13 02:31N 39°29' W 075°34'0 0.0
2017-Oct-13 02:00N 39°29' W 075°34'0 0.0
2017-Oct-13 01:31N 39°29' W 075°34'0 0.0
2017-Oct-13 01:01N 39°29' W 075°34'0 0.0
2017-Oct-13 00:31N 39°29' W 075°34'0 0.0
2017-Oct-13 00:01N 39°29' W 075°34'0 0.0
2017-Oct-12 23:30N 39°29' W 075°34'0 0.0
2017-Oct-12 23:01N 39°29' W 075°34'0 0.1
2017-Oct-12 22:31N 39°29' W 075°34'3 5.0
2017-Oct-12 22:01N 39°27' W 075°33'510.3
2017-Oct-12 21:31N 39°23' W 075°29'510.1
2017-Oct-12 21:01N 39°19' W 075°24'5 9.6
2017-Oct-12 20:31N 39°16' W 075°20'5 9.2
2017-Oct-12 20:01N 39°12' W 075°17'5 9.5
2017-Oct-12 19:31N 39°08' W 075°14'1 2.8
2017-Oct-12 19:01N 39°07' W 075°13'1 1.8
2017-Oct-12 18:30N 39°06' W 075°12'0 0.9
2017-Oct-12 18:01N 39°06' W 075°12'0 0.8
2017-Oct-12 17:31N 39°07' W 075°13'0 0.8
2017-Oct-12 17:01N 39°07' W 075°13'1 1.3
2017-Oct-12 16:30N 39°08' W 075°13'1 2.1
2017-Oct-12 16:00N 39°07' W 075°13'1 1.1
2017-Oct-12 15:31N 39°06' W 075°12'1 1.1
2017-Oct-12 15:01N 39°07' W 075°13'1 1.2
2017-Oct-12 14:31N 39°07' W 075°13'2 4.3
2017-Oct-12 14:00N 39°09' W 075°15'4 8.4
2017-Oct-12 13:30N 39°13' W 075°17'4 8.6
2017-Oct-12 13:01N 39°16' W 075°21'5 9.3
2017-Oct-12 12:31N 39°20' W 075°25'5 9.2
2017-Oct-12 12:01N 39°23' W 075°29'4 8.8
2017-Oct-12 11:31N 39°26' W 075°32'3 6.6
2017-Oct-12 11:01N 39°29' W 075°34'0 0.1
2017-Oct-12 10:31N 39°29' W 075°34'0 0.0
2017-Oct-12 10:01N 39°29' W 075°34'0 0.0
2017-Oct-12 09:31N 39°29' W 075°34'0 0.0
2017-Oct-12 09:01N 39°29' W 075°34'0 0.0
2017-Oct-12 08:30N 39°29' W 075°34'0 0.0
2017-Oct-12 08:01N 39°29' W 075°33'0 0.0
2017-Oct-12 07:31N 39°29' W 075°33'0 0.0
2017-Oct-12 07:00N 39°29' W 075°33'0 0.0
2017-Oct-12 06:30N 39°29' W 075°33'1 1.6
2017-Oct-12 06:01N 39°29' W 075°34'510.7
2017-Oct-12 05:31N 39°24' W 075°30'511.0
2017-Oct-12 05:01N 39°20' W 075°25'510.8
2017-Oct-12 04:30N 39°16' W 075°20'510.3
2017-Oct-12 04:00N 39°12' W 075°17'5 9.1
2017-Oct-12 03:30N 39°08' W 075°14'1 2.1
2017-Oct-12 03:00N 39°07' W 075°13'0 0.8
2017-Oct-12 02:30N 39°07' W 075°13'0 0.5
2017-Oct-12 02:00N 39°07' W 075°13'0 0.9
2017-Oct-12 01:30N 39°07' W 075°13'1 1.6
2017-Oct-12 01:01N 39°07' W 075°13'0 0.9
2017-Oct-12 00:30N 39°07' W 075°13'0 0.8
2017-Oct-12 00:00N 39°07' W 075°13'0 0.7
2017-Oct-11 23:30N 39°06' W 075°12'0 0.6
2017-Oct-11 23:00N 39°06' W 075°12'2 3.7
2017-Oct-11 22:30N 39°08' W 075°14'5 9.3
2017-Oct-11 22:00N 39°12' W 075°17'5 9.4
2017-Oct-11 21:30N 39°16' W 075°20'5 9.9
2017-Oct-11 21:00N 39°19' W 075°24'5 9.3
2017-Oct-11 20:30N 39°23' W 075°28'4 9.0
2017-Oct-11 20:01N 39°26' W 075°32'3 6.9
2017-Oct-11 19:30N 39°29' W 075°34'0 0.2
2017-Oct-11 19:01N 39°29' W 075°33'0 0.0
2017-Oct-11 18:31N 39°29' W 075°33'0 0.0
2017-Oct-11 18:00N 39°29' W 075°33'0 0.0
2017-Oct-11 17:31N 39°29' W 075°33'0 0.0
2017-Oct-11 17:01N 39°29' W 075°33'0 0.0
2017-Oct-11 00:00N 39°29' W 075°34'0 0.0
2017-Oct-10 23:30N 39°29' W 075°34'0 0.0
2017-Oct-10 23:01N 39°29' W 075°34'0 0.0
2017-Oct-10 22:31N 39°29' W 075°34'0 0.0
2017-Oct-10 22:01N 39°29' W 075°34'0 0.0
2017-Oct-10 21:31N 39°29' W 075°34'0 0.0
2017-Oct-10 21:01N 39°29' W 075°34'0 0.1
2017-Oct-10 20:31N 39°29' W 075°34'4 7.1
2017-Oct-10 20:01N 39°26' W 075°32'510.9
2017-Oct-10 19:31N 39°22' W 075°27'611.6
2017-Oct-10 19:00N 39°18' W 075°22'611.3
2017-Oct-10 18:30N 39°13' W 075°18'510.9
2017-Oct-10 18:01N 39°09' W 075°14'3 5.9
2017-Oct-10 17:31N 39°06' W 075°12'1 1.5
2017-Oct-10 16:56N 39°07' W 075°13'1 1.2
2017-Oct-10 16:31N 39°07' W 075°13'0 0.4
2017-Oct-10 16:00N 39°07' W 075°13'1 1.9
2017-Oct-10 15:30N 39°06' W 075°12'0 0.6
2017-Oct-10 15:00N 39°07' W 075°12'1 0.8
2017-Oct-10 14:00N 39°07' W 075°13'0 0.1
2017-Oct-10 13:31N 39°07' W 075°13'1 1.5
2017-Oct-10 13:00N 39°07' W 075°12'0 0.9
2017-Oct-10 12:30N 39°06' W 075°12'0 0.2
2017-Oct-10 12:00N 39°06' W 075°12'1 2.6
2017-Oct-10 11:30N 39°07' W 075°13'3 5.1
2017-Oct-10 11:00N 39°09' W 075°15'5 9.8
2017-Oct-10 10:31N 39°14' W 075°18'5 9.6
2017-Oct-10 10:00N 39°17' W 075°22'510.3
2017-Oct-10 09:31N 39°21' W 075°26'5 9.6
2017-Oct-10 09:00N 39°25' W 075°31'4 8.5
2017-Oct-10 08:30N 39°28' W 075°34'1 2.2
2017-Oct-10 08:00N 39°29' W 075°34'0 0.0
2017-Oct-10 07:30N 39°29' W 075°33'0 0.0
2017-Oct-10 07:00N 39°29' W 075°33'0 0.0
2017-Oct-10 06:30N 39°29' W 075°33'0 0.0
2017-Oct-10 06:00N 39°29' W 075°33'0 0.0
2017-Oct-10 05:30N 39°29' W 075°33'0 0.0
2017-Oct-10 05:00N 39°29' W 075°33'0 0.0
2017-Oct-10 04:30N 39°29' W 075°33'0 0.0
2017-Oct-10 04:01N 39°29' W 075°33'0 0.0
2017-Oct-10 03:31N 39°29' W 075°34'0 0.4
2017-Oct-10 03:01N 39°30' W 075°34'4 7.5
2017-Oct-10 02:31N 39°26' W 075°32'4 8.5
2017-Oct-10 02:01N 39°23' W 075°28'4 8.1
2017-Oct-10 01:31N 39°20' W 075°25'4 7.6
2017-Oct-10 01:01N 39°17' W 075°22'4 7.9
2017-Oct-10 00:31N 39°14' W 075°18'4 7.1
2017-Oct-10 00:01N 39°11' W 075°16'4 7.9
2017-Oct-09 23:31N 39°08' W 075°13'0 0.9
2017-Oct-09 23:01N 39°07' W 075°13'0 0.2
2017-Oct-09 22:31N 39°07' W 075°13'1 1.0
2017-Oct-09 22:01N 39°07' W 075°13'1 1.0
2017-Oct-09 21:31N 39°07' W 075°13'0 0.1
2017-Oct-09 21:01N 39°07' W 075°13'1 1.1
2017-Oct-09 20:31N 39°07' W 075°13'1 1.2
2017-Oct-09 20:01N 39°07' W 075°13'0 0.3
2017-Oct-09 19:31N 39°07' W 075°13'1 1.2
2017-Oct-09 19:01N 39°07' W 075°13'1 1.4
2017-Oct-09 18:31N 39°06' W 075°12'0 0.7
2017-Oct-09 18:00N 39°06' W 075°12'1 1.5
2017-Oct-09 17:31N 39°07' W 075°13'2 3.3
2017-Oct-09 17:00N 39°08' W 075°14'5 9.2
2017-Oct-09 16:31N 39°12' W 075°17'4 8.5
2017-Oct-09 16:01N 39°16' W 075°20'4 8.2
2017-Oct-09 15:30N 39°19' W 075°24'4 8.3
2017-Oct-09 15:00N 39°22' W 075°27'4 7.3
2017-Oct-09 14:30N 39°25' W 075°31'4 7.6
2017-Oct-09 14:01N 39°28' W 075°34'2 3.4
2017-Oct-09 13:30N 39°29' W 075°34'0 0.1
2017-Oct-09 13:00N 39°29' W 075°34'0 0.0
2017-Oct-09 12:30N 39°29' W 075°34'0 0.0
2017-Oct-09 12:01N 39°29' W 075°34'0 0.0
2017-Oct-09 11:31N 39°29' W 075°34'0 0.0
2017-Oct-09 11:01N 39°29' W 075°34'0 0.0
2017-Oct-09 10:31N 39°29' W 075°34'0 0.0
2017-Oct-09 10:01N 39°29' W 075°34'0 0.0
2017-Oct-09 09:30N 39°29' W 075°34'0 0.0
2017-Oct-09 09:00N 39°29' W 075°34'  

Dump ship's entire track history